sensor_id;sensor_type;location;lat;lon;timestamp;temperature;humidity
12015;DHT22;6066;48.138;16.402;2024-03-02T00:00:14;4.80;99.90
12015;DHT22;6066;48.138;16.402;2024-03-02T00:02:41;4.70;99.90
12015;DHT22;6066;48.138;16.402;2024-03-02T00:05:08;4.70;99.90
12015;DHT22;6066;48.138;16.402;2024-03-02T00:07:37;4.60;99.90
12015;DHT22;6066;48.138;16.402;2024-03-02T00:10:07;4.60;99.90
12015;DHT22;6066;48.138;16.402;2024-03-02T00:12:36;4.60;99.90
12015;DHT22;6066;48.138;16.402;2024-03-02T00:15:03;4.60;99.90
12015;DHT22;6066;48.138;16.402;2024-03-02T00:17:31;4.60;99.90
12015;DHT22;6066;48.138;16.402;2024-03-02T00:19:58;4.60;99.90
12015;DHT22;6066;48.138;16.402;2024-03-02T00:22:24;4.50;99.90
12015;DHT22;6066;48.138;16.402;2024-03-02T00:24:53;4.40;99.90
12015;DHT22;6066;48.138;16.402;2024-03-02T00:27:25;4.50;99.90
12015;DHT22;6066;48.138;16.402;2024-03-02T00:29:52;4.40;99.90
12015;DHT22;6066;48.138;16.402;2024-03-02T00:32:19;4.40;99.90
12015;DHT22;6066;48.138;16.402;2024-03-02T00:34:46;4.30;99.90
12015;DHT22;6066;48.138;16.402;2024-03-02T00:37:12;4.40;99.90
12015;DHT22;6066;48.138;16.402;2024-03-02T00:39:40;4.40;99.90
12015;DHT22;6066;48.138;16.402;2024-03-02T00:42:07;4.40;99.90
12015;DHT22;6066;48.138;16.402;2024-03-02T00:44:35;4.40;99.90
12015;DHT22;6066;48.138;16.402;2024-03-02T00:47:02;4.40;99.90
12015;DHT22;6066;48.138;16.402;2024-03-02T00:49:29;4.40;99.90
12015;DHT22;6066;48.138;16.402;2024-03-02T00:51:56;4.40;99.90
12015;DHT22;6066;48.138;16.402;2024-03-02T00:54:23;4.40;99.90
12015;DHT22;6066;48.138;16.402;2024-03-02T00:56:51;4.40;99.90
12015;DHT22;6066;48.138;16.402;2024-03-02T00:59:20;4.40;99.90
12015;DHT22;6066;48.138;16.402;2024-03-02T01:01:48;4.40;99.90
12015;DHT22;6066;48.138;16.402;2024-03-02T01:04:15;4.40;99.90
12015;DHT22;6066;48.138;16.402;2024-03-02T01:06:42;4.40;99.90
12015;DHT22;6066;48.138;16.402;2024-03-02T01:09:09;4.30;99.90
12015;DHT22;6066;48.138;16.402;2024-03-02T01:11:37;4.30;99.90
12015;DHT22;6066;48.138;16.402;2024-03-02T01:14:03;4.30;99.90
12015;DHT22;6066;48.138;16.402;2024-03-02T01:16:30;4.20;99.90
12015;DHT22;6066;48.138;16.402;2024-03-02T01:18:58;4.20;99.90
12015;DHT22;6066;48.138;16.402;2024-03-02T01:21:25;4.20;99.90
12015;DHT22;6066;48.138;16.402;2024-03-02T01:23:52;4.20;99.90
12015;DHT22;6066;48.138;16.402;2024-03-02T01:26:19;4.10;99.90
12015;DHT22;6066;48.138;16.402;2024-03-02T01:28:45;4.10;99.90
12015;DHT22;6066;48.138;16.402;2024-03-02T01:31:12;4.10;99.90
12015;DHT22;6066;48.138;16.402;2024-03-02T01:33:39;4.10;99.90
12015;DHT22;6066;48.138;16.402;2024-03-02T01:36:07;4.10;99.90
12015;DHT22;6066;48.138;16.402;2024-03-02T01:38:34;4.20;99.90
12015;DHT22;6066;48.138;16.402;2024-03-02T01:41:00;4.30;99.90
12015;DHT22;6066;48.138;16.402;2024-03-02T01:43:27;4.30;99.90
12015;DHT22;6066;48.138;16.402;2024-03-02T01:45:54;4.30;99.90
12015;DHT22;6066;48.138;16.402;2024-03-02T01:48:22;4.30;99.90
12015;DHT22;6066;48.138;16.402;2024-03-02T01:50:48;4.30;99.90
12015;DHT22;6066;48.138;16.402;2024-03-02T01:53:18;4.40;99.90
12015;DHT22;6066;48.138;16.402;2024-03-02T01:55:46;4.40;99.90
12015;DHT22;6066;48.138;16.402;2024-03-02T01:58:13;4.50;99.90
12015;DHT22;6066;48.138;16.402;2024-03-02T02:00:40;4.40;99.90
12015;DHT22;6066;48.138;16.402;2024-03-02T02:03:07;4.40;99.90
12015;DHT22;6066;48.138;16.402;2024-03-02T02:05:34;4.40;99.90
12015;DHT22;6066;48.138;16.402;2024-03-02T02:08:01;4.30;99.90
12015;DHT22;6066;48.138;16.402;2024-03-02T02:10:29;4.30;99.90
12015;DHT22;6066;48.138;16.402;2024-03-02T02:12:55;4.30;99.90
12015;DHT22;6066;48.138;16.402;2024-03-02T02:15:23;4.30;99.90
12015;DHT22;6066;48.138;16.402;2024-03-02T02:17:50;4.20;99.90
12015;DHT22;6066;48.138;16.402;2024-03-02T02:20:17;4.20;99.90
12015;DHT22;6066;48.138;16.402;2024-03-02T02:22:58;4.10;99.90
12015;DHT22;6066;48.138;16.402;2024-03-02T02:25:25;4.10;99.90
12015;DHT22;6066;48.138;16.402;2024-03-02T02:27:52;4.10;99.90
12015;DHT22;6066;48.138;16.402;2024-03-02T02:30:19;4.10;99.90
12015;DHT22;6066;48.138;16.402;2024-03-02T02:32:46;4.00;99.90
12015;DHT22;6066;48.138;16.402;2024-03-02T02:35:13;4.00;99.90
12015;DHT22;6066;48.138;16.402;2024-03-02T02:37:40;4.00;99.90
12015;DHT22;6066;48.138;16.402;2024-03-02T02:40:08;4.00;99.90
12015;DHT22;6066;48.138;16.402;2024-03-02T02:42:35;4.00;99.90
12015;DHT22;6066;48.138;16.402;2024-03-02T02:45:02;4.00;99.90
12015;DHT22;6066;48.138;16.402;2024-03-02T02:47:29;4.00;99.90
12015;DHT22;6066;48.138;16.402;2024-03-02T02:49:56;4.00;99.90
12015;DHT22;6066;48.138;16.402;2024-03-02T02:52:22;4.00;99.90
12015;DHT22;6066;48.138;16.402;2024-03-02T02:54:49;4.10;99.90
12015;DHT22;6066;48.138;16.402;2024-03-02T02:57:18;4.10;99.90
12015;DHT22;6066;48.138;16.402;2024-03-02T02:59:44;4.10;99.90
12015;DHT22;6066;48.138;16.402;2024-03-02T03:02:11;4.20;99.90
12015;DHT22;6066;48.138;16.402;2024-03-02T03:04:39;4.20;99.90
12015;DHT22;6066;48.138;16.402;2024-03-02T03:07:06;4.20;99.90
12015;DHT22;6066;48.138;16.402;2024-03-02T03:09:33;4.30;99.90
12015;DHT22;6066;48.138;16.402;2024-03-02T03:11:59;4.30;99.90
12015;DHT22;6066;48.138;16.402;2024-03-02T03:14:28;4.30;99.90
12015;DHT22;6066;48.138;16.402;2024-03-02T03:16:54;4.30;99.90
12015;DHT22;6066;48.138;16.402;2024-03-02T03:19:21;4.30;99.90
12015;DHT22;6066;48.138;16.402;2024-03-02T03:21:48;4.30;99.90
12015;DHT22;6066;48.138;16.402;2024-03-02T03:24:15;4.30;99.90
12015;DHT22;6066;48.138;16.402;2024-03-02T03:26:41;4.30;99.90
12015;DHT22;6066;48.138;16.402;2024-03-02T03:29:08;4.30;99.90
12015;DHT22;6066;48.138;16.402;2024-03-02T03:31:36;4.20;99.90
12015;DHT22;6066;48.138;16.402;2024-03-02T03:34:03;4.20;99.90
12015;DHT22;6066;48.138;16.402;2024-03-02T03:36:30;4.10;99.90
12015;DHT22;6066;48.138;16.402;2024-03-02T03:38:56;4.10;99.90
12015;DHT22;6066;48.138;16.402;2024-03-02T03:41:24;4.10;99.90
12015;DHT22;6066;48.138;16.402;2024-03-02T03:43:50;4.10;99.90
12015;DHT22;6066;48.138;16.402;2024-03-02T03:46:17;4.10;99.90
12015;DHT22;6066;48.138;16.402;2024-03-02T03:48:45;4.10;99.90
12015;DHT22;6066;48.138;16.402;2024-03-02T03:51:12;4.00;99.90
12015;DHT22;6066;48.138;16.402;2024-03-02T03:53:39;4.00;99.90
12015;DHT22;6066;48.138;16.402;2024-03-02T03:56:06;3.90;99.90
12015;DHT22;6066;48.138;16.402;2024-03-02T03:58:32;3.90;99.90
12015;DHT22;6066;48.138;16.402;2024-03-02T04:00:59;3.90;99.90
12015;DHT22;6066;48.138;16.402;2024-03-02T04:03:26;3.90;99.90
12015;DHT22;6066;48.138;16.402;2024-03-02T04:05:54;4.00;99.90
12015;DHT22;6066;48.138;16.402;2024-03-02T04:08:21;4.00;99.90
12015;DHT22;6066;48.138;16.402;2024-03-02T04:10:48;4.00;99.90
12015;DHT22;6066;48.138;16.402;2024-03-02T04:13:14;4.10;99.90
12015;DHT22;6066;48.138;16.402;2024-03-02T04:15:41;4.10;99.90
12015;DHT22;6066;48.138;16.402;2024-03-02T04:18:08;4.10;99.90
12015;DHT22;6066;48.138;16.402;2024-03-02T04:20:35;4.10;99.90
12015;DHT22;6066;48.138;16.402;2024-03-02T04:23:03;4.10;99.90
12015;DHT22;6066;48.138;16.402;2024-03-02T04:25:30;4.10;99.90
12015;DHT22;6066;48.138;16.402;2024-03-02T04:27:56;4.10;99.90
12015;DHT22;6066;48.138;16.402;2024-03-02T04:30:23;4.10;99.90
12015;DHT22;6066;48.138;16.402;2024-03-02T04:32:50;4.10;99.90
12015;DHT22;6066;48.138;16.402;2024-03-02T04:35:17;4.20;99.90
12015;DHT22;6066;48.138;16.402;2024-03-02T04:37:44;4.20;99.90
12015;DHT22;6066;48.138;16.402;2024-03-02T04:40:12;4.20;99.90
12015;DHT22;6066;48.138;16.402;2024-03-02T04:42:39;4.30;99.90
12015;DHT22;6066;48.138;16.402;2024-03-02T04:45:07;4.30;99.90
12015;DHT22;6066;48.138;16.402;2024-03-02T04:47:34;4.30;99.90
12015;DHT22;6066;48.138;16.402;2024-03-02T04:50:01;4.30;99.90
12015;DHT22;6066;48.138;16.402;2024-03-02T04:52:28;4.30;99.90
12015;DHT22;6066;48.138;16.402;2024-03-02T04:54:54;4.30;99.90
12015;DHT22;6066;48.138;16.402;2024-03-02T04:57:45;4.40;99.90
12015;DHT22;6066;48.138;16.402;2024-03-02T05:00:13;4.30;99.90
12015;DHT22;6066;48.138;16.402;2024-03-02T05:02:40;4.30;99.90
12015;DHT22;6066;48.138;16.402;2024-03-02T05:05:06;4.30;99.90
12015;DHT22;6066;48.138;16.402;2024-03-02T05:07:33;4.30;99.90
12015;DHT22;6066;48.138;16.402;2024-03-02T05:10:00;4.20;99.90
12015;DHT22;6066;48.138;16.402;2024-03-02T05:12:27;4.20;99.90
12015;DHT22;6066;48.138;16.402;2024-03-02T05:15:22;4.10;99.90
12015;DHT22;6066;48.138;16.402;2024-03-02T05:17:49;4.20;99.90
12015;DHT22;6066;48.138;16.402;2024-03-02T05:20:15;4.10;99.90
12015;DHT22;6066;48.138;16.402;2024-03-02T05:22:42;4.00;99.90
12015;DHT22;6066;48.138;16.402;2024-03-02T05:25:09;4.00;99.90
12015;DHT22;6066;48.138;16.402;2024-03-02T05:27:37;4.00;99.90
12015;DHT22;6066;48.138;16.402;2024-03-02T05:30:04;4.00;99.90
12015;DHT22;6066;48.138;16.402;2024-03-02T05:32:34;4.00;99.90
12015;DHT22;6066;48.138;16.402;2024-03-02T05:35:01;4.00;99.90
12015;DHT22;6066;48.138;16.402;2024-03-02T05:37:28;4.10;99.90
12015;DHT22;6066;48.138;16.402;2024-03-02T05:39:55;4.10;99.90
12015;DHT22;6066;48.138;16.402;2024-03-02T05:42:22;4.20;99.90
12015;DHT22;6066;48.138;16.402;2024-03-02T05:44:48;4.30;99.90
12015;DHT22;6066;48.138;16.402;2024-03-02T05:47:15;4.40;99.90
12015;DHT22;6066;48.138;16.402;2024-03-02T05:49:43;4.50;99.90
12015;DHT22;6066;48.138;16.402;2024-03-02T05:52:10;4.50;99.90
12015;DHT22;6066;48.138;16.402;2024-03-02T05:54:37;4.60;99.90
12015;DHT22;6066;48.138;16.402;2024-03-02T05:57:04;4.60;99.90
12015;DHT22;6066;48.138;16.402;2024-03-02T05:59:53;4.60;99.90
12015;DHT22;6066;48.138;16.402;2024-03-02T06:02:19;4.70;99.90
12015;DHT22;6066;48.138;16.402;2024-03-02T06:04:47;4.70;99.90
12015;DHT22;6066;48.138;16.402;2024-03-02T06:07:14;4.80;99.90
12015;DHT22;6066;48.138;16.402;2024-03-02T06:09:41;4.90;99.90
12015;DHT22;6066;48.138;16.402;2024-03-02T06:12:10;4.90;99.90
12015;DHT22;6066;48.138;16.402;2024-03-02T06:14:36;5.00;99.90
12015;DHT22;6066;48.138;16.402;2024-03-02T06:17:03;5.00;99.90
12015;DHT22;6066;48.138;16.402;2024-03-02T06:19:30;5.10;99.90
12015;DHT22;6066;48.138;16.402;2024-03-02T06:21:58;5.10;99.90
12015;DHT22;6066;48.138;16.402;2024-03-02T06:24:25;5.20;99.90
12015;DHT22;6066;48.138;16.402;2024-03-02T06:26:52;5.20;99.90
12015;DHT22;6066;48.138;16.402;2024-03-02T06:29:19;5.30;99.90
12015;DHT22;6066;48.138;16.402;2024-03-02T06:31:45;5.40;99.90
12015;DHT22;6066;48.138;16.402;2024-03-02T06:34:12;5.50;99.90
12015;DHT22;6066;48.138;16.402;2024-03-02T06:36:39;5.50;99.90
12015;DHT22;6066;48.138;16.402;2024-03-02T06:39:09;5.60;99.90
12015;DHT22;6066;48.138;16.402;2024-03-02T06:41:38;5.60;99.90
12015;DHT22;6066;48.138;16.402;2024-03-02T06:44:04;5.60;99.90
12015;DHT22;6066;48.138;16.402;2024-03-02T06:46:31;5.70;99.90
12015;DHT22;6066;48.138;16.402;2024-03-02T06:48:58;5.70;99.90
12015;DHT22;6066;48.138;16.402;2024-03-02T06:51:27;5.70;99.90
12015;DHT22;6066;48.138;16.402;2024-03-02T06:53:54;5.70;99.90
12015;DHT22;6066;48.138;16.402;2024-03-02T06:56:22;5.70;99.90
12015;DHT22;6066;48.138;16.402;2024-03-02T06:58:49;5.70;99.90
12015;DHT22;6066;48.138;16.402;2024-03-02T07:01:16;5.70;99.90
12015;DHT22;6066;48.138;16.402;2024-03-02T07:03:43;5.70;99.90
12015;DHT22;6066;48.138;16.402;2024-03-02T07:06:10;5.80;99.90
12015;DHT22;6066;48.138;16.402;2024-03-02T07:08:36;5.80;99.90
12015;DHT22;6066;48.138;16.402;2024-03-02T07:11:03;5.80;99.90
12015;DHT22;6066;48.138;16.402;2024-03-02T07:13:31;5.70;99.90
12015;DHT22;6066;48.138;16.402;2024-03-02T07:15:58;5.70;99.90
12015;DHT22;6066;48.138;16.402;2024-03-02T07:18:48;5.70;99.90
12015;DHT22;6066;48.138;16.402;2024-03-02T07:21:17;5.70;99.90
12015;DHT22;6066;48.138;16.402;2024-03-02T07:23:43;5.80;99.90
12015;DHT22;6066;48.138;16.402;2024-03-02T07:26:10;5.80;99.90
12015;DHT22;6066;48.138;16.402;2024-03-02T07:28:38;5.80;99.90
12015;DHT22;6066;48.138;16.402;2024-03-02T07:31:05;5.80;99.90
12015;DHT22;6066;48.138;16.402;2024-03-02T07:33:32;5.80;99.90
12015;DHT22;6066;48.138;16.402;2024-03-02T07:36:00;5.90;99.90
12015;DHT22;6066;48.138;16.402;2024-03-02T07:38:28;6.00;99.90
12015;DHT22;6066;48.138;16.402;2024-03-02T07:40:55;6.00;99.90
12015;DHT22;6066;48.138;16.402;2024-03-02T07:43:22;6.10;99.90
12015;DHT22;6066;48.138;16.402;2024-03-02T07:45:53;6.10;99.90
12015;DHT22;6066;48.138;16.402;2024-03-02T07:48:19;6.10;99.90
12015;DHT22;6066;48.138;16.402;2024-03-02T07:50:46;6.10;99.90
12015;DHT22;6066;48.138;16.402;2024-03-02T07:53:13;6.10;99.90
12015;DHT22;6066;48.138;16.402;2024-03-02T07:55:40;6.10;99.90
12015;DHT22;6066;48.138;16.402;2024-03-02T07:58:07;6.10;99.90
12015;DHT22;6066;48.138;16.402;2024-03-02T08:00:33;6.10;99.90
12015;DHT22;6066;48.138;16.402;2024-03-02T08:03:02;6.00;99.90
12015;DHT22;6066;48.138;16.402;2024-03-02T08:05:28;6.10;99.90
12015;DHT22;6066;48.138;16.402;2024-03-02T08:07:55;6.10;99.90
12015;DHT22;6066;48.138;16.402;2024-03-02T08:10:22;6.10;99.90
12015;DHT22;6066;48.138;16.402;2024-03-02T08:12:49;6.10;99.90
12015;DHT22;6066;48.138;16.402;2024-03-02T08:15:16;6.10;99.90
12015;DHT22;6066;48.138;16.402;2024-03-02T08:17:43;6.20;99.90
12015;DHT22;6066;48.138;16.402;2024-03-02T08:20:15;6.20;99.90
12015;DHT22;6066;48.138;16.402;2024-03-02T08:22:42;6.20;99.90
12015;DHT22;6066;48.138;16.402;2024-03-02T08:25:10;6.20;99.90
12015;DHT22;6066;48.138;16.402;2024-03-02T08:27:37;6.20;99.90
12015;DHT22;6066;48.138;16.402;2024-03-02T08:30:05;6.30;99.90
12015;DHT22;6066;48.138;16.402;2024-03-02T08:32:36;6.20;99.90
12015;DHT22;6066;48.138;16.402;2024-03-02T08:35:03;6.20;99.90
12015;DHT22;6066;48.138;16.402;2024-03-02T08:37:31;6.30;99.90
12015;DHT22;6066;48.138;16.402;2024-03-02T08:39:58;6.30;99.90
12015;DHT22;6066;48.138;16.402;2024-03-02T08:42:25;6.20;99.90
12015;DHT22;6066;48.138;16.402;2024-03-02T08:44:54;6.30;99.90
12015;DHT22;6066;48.138;16.402;2024-03-02T08:47:22;6.30;99.90
12015;DHT22;6066;48.138;16.402;2024-03-02T08:49:49;6.50;99.90
12015;DHT22;6066;48.138;16.402;2024-03-02T08:52:16;6.50;99.90
12015;DHT22;6066;48.138;16.402;2024-03-02T08:54:44;6.50;99.90
12015;DHT22;6066;48.138;16.402;2024-03-02T08:57:11;6.60;99.90
12015;DHT22;6066;48.138;16.402;2024-03-02T08:59:38;6.70;99.90
12015;DHT22;6066;48.138;16.402;2024-03-02T09:02:07;6.80;99.90
12015;DHT22;6066;48.138;16.402;2024-03-02T09:04:34;6.90;99.90
12015;DHT22;6066;48.138;16.402;2024-03-02T09:07:01;6.90;99.90
12015;DHT22;6066;48.138;16.402;2024-03-02T09:09:27;7.00;99.90
12015;DHT22;6066;48.138;16.402;2024-03-02T09:11:56;7.20;99.90
12015;DHT22;6066;48.138;16.402;2024-03-02T09:14:23;7.20;99.90
12015;DHT22;6066;48.138;16.402;2024-03-02T09:16:50;7.30;99.90
12015;DHT22;6066;48.138;16.402;2024-03-02T09:19:16;7.30;99.90
12015;DHT22;6066;48.138;16.402;2024-03-02T09:21:44;7.40;99.90
12015;DHT22;6066;48.138;16.402;2024-03-02T09:24:10;7.50;99.90
12015;DHT22;6066;48.138;16.402;2024-03-02T09:26:38;7.50;99.90
12015;DHT22;6066;48.138;16.402;2024-03-02T09:29:06;7.60;99.90
12015;DHT22;6066;48.138;16.402;2024-03-02T09:31:33;7.60;99.90
12015;DHT22;6066;48.138;16.402;2024-03-02T09:33:59;7.60;99.90
12015;DHT22;6066;48.138;16.402;2024-03-02T09:36:26;7.70;99.90
12015;DHT22;6066;48.138;16.402;2024-03-02T09:38:53;7.70;99.90
12015;DHT22;6066;48.138;16.402;2024-03-02T09:41:20;7.80;99.90
12015;DHT22;6066;48.138;16.402;2024-03-02T09:43:46;7.90;99.90
12015;DHT22;6066;48.138;16.402;2024-03-02T09:46:14;7.90;99.90
12015;DHT22;6066;48.138;16.402;2024-03-02T09:48:44;7.90;99.90
12015;DHT22;6066;48.138;16.402;2024-03-02T09:51:11;7.90;99.90
12015;DHT22;6066;48.138;16.402;2024-03-02T09:53:38;8.00;99.90
12015;DHT22;6066;48.138;16.402;2024-03-02T09:56:05;8.10;99.90
12015;DHT22;6066;48.138;16.402;2024-03-02T09:58:32;8.20;99.90
12015;DHT22;6066;48.138;16.402;2024-03-02T10:00:59;8.20;99.90
12015;DHT22;6066;48.138;16.402;2024-03-02T10:03:28;8.30;99.90
12015;DHT22;6066;48.138;16.402;2024-03-02T10:08:42;8.50;99.90
12015;DHT22;6066;48.138;16.402;2024-03-02T10:11:09;8.50;99.90
12015;DHT22;6066;48.138;16.402;2024-03-02T10:13:36;8.40;99.90
12015;DHT22;6066;48.138;16.402;2024-03-02T10:16:07;8.50;99.90
12015;DHT22;6066;48.138;16.402;2024-03-02T10:18:39;8.50;99.90
12015;DHT22;6066;48.138;16.402;2024-03-02T10:21:12;8.60;99.90
12015;DHT22;6066;48.138;16.402;2024-03-02T10:23:39;8.60;99.90
12015;DHT22;6066;48.138;16.402;2024-03-02T10:26:07;8.70;99.90
12015;DHT22;6066;48.138;16.402;2024-03-02T10:28:45;8.80;99.90
12015;DHT22;6066;48.138;16.402;2024-03-02T10:31:12;8.90;99.90
12015;DHT22;6066;48.138;16.402;2024-03-02T10:33:41;9.00;99.90
12015;DHT22;6066;48.138;16.402;2024-03-02T10:36:07;9.00;99.90
12015;DHT22;6066;48.138;16.402;2024-03-02T10:38:34;9.00;99.90
12015;DHT22;6066;48.138;16.402;2024-03-02T10:41:01;9.10;99.90
12015;DHT22;6066;48.138;16.402;2024-03-02T10:43:29;9.20;99.90
12015;DHT22;6066;48.138;16.402;2024-03-02T10:45:56;9.30;99.90
12015;DHT22;6066;48.138;16.402;2024-03-02T10:48:24;9.40;99.90
12015;DHT22;6066;48.138;16.402;2024-03-02T10:50:53;9.50;99.90
12015;DHT22;6066;48.138;16.402;2024-03-02T10:53:20;9.50;99.90
12015;DHT22;6066;48.138;16.402;2024-03-02T10:55:47;9.50;99.90
12015;DHT22;6066;48.138;16.402;2024-03-02T10:58:17;9.60;99.90
12015;DHT22;6066;48.138;16.402;2024-03-02T11:00:45;9.60;99.90
12015;DHT22;6066;48.138;16.402;2024-03-02T11:03:12;9.60;99.90
12015;DHT22;6066;48.138;16.402;2024-03-02T11:05:41;9.70;99.90
12015;DHT22;6066;48.138;16.402;2024-03-02T11:08:11;9.80;99.90
12015;DHT22;6066;48.138;16.402;2024-03-02T11:10:41;9.90;99.90
12015;DHT22;6066;48.138;16.402;2024-03-02T11:13:12;10.00;99.90
12015;DHT22;6066;48.138;16.402;2024-03-02T11:15:43;10.20;99.90
12015;DHT22;6066;48.138;16.402;2024-03-02T11:18:10;10.30;99.90
12015;DHT22;6066;48.138;16.402;2024-03-02T11:20:37;10.30;99.90
12015;DHT22;6066;48.138;16.402;2024-03-02T11:23:05;10.40;99.90
12015;DHT22;6066;48.138;16.402;2024-03-02T11:25:33;10.50;99.90
12015;DHT22;6066;48.138;16.402;2024-03-02T11:28:01;10.50;99.90
12015;DHT22;6066;48.138;16.402;2024-03-02T11:33:14;10.60;99.90
12015;DHT22;6066;48.138;16.402;2024-03-02T11:35:42;10.60;99.90
12015;DHT22;6066;48.138;16.402;2024-03-02T11:38:11;10.70;99.90
12015;DHT22;6066;48.138;16.402;2024-03-02T11:40:40;10.70;99.90
12015;DHT22;6066;48.138;16.402;2024-03-02T11:43:06;10.60;99.90
12015;DHT22;6066;48.138;16.402;2024-03-02T11:45:35;10.60;99.90
12015;DHT22;6066;48.138;16.402;2024-03-02T11:48:05;10.70;99.90
12015;DHT22;6066;48.138;16.402;2024-03-02T11:50:33;10.70;99.90
12015;DHT22;6066;48.138;16.402;2024-03-02T11:53:00;10.70;99.90
12015;DHT22;6066;48.138;16.402;2024-03-02T11:55:27;10.70;99.90
12015;DHT22;6066;48.138;16.402;2024-03-02T11:57:56;10.70;99.90
12015;DHT22;6066;48.138;16.402;2024-03-02T12:00:23;10.60;99.90
12015;DHT22;6066;48.138;16.402;2024-03-02T12:02:59;10.60;99.90
12015;DHT22;6066;48.138;16.402;2024-03-02T12:05:26;10.60;99.90
12015;DHT22;6066;48.138;16.402;2024-03-02T12:08:01;10.60;99.90
12015;DHT22;6066;48.138;16.402;2024-03-02T12:10:28;10.70;99.90
12015;DHT22;6066;48.138;16.402;2024-03-02T12:12:56;10.70;99.90
12015;DHT22;6066;48.138;16.402;2024-03-02T12:15:25;10.70;99.90
12015;DHT22;6066;48.138;16.402;2024-03-02T12:17:55;10.80;99.90
12015;DHT22;6066;48.138;16.402;2024-03-02T12:20:22;10.90;99.90
12015;DHT22;6066;48.138;16.402;2024-03-02T12:22:50;11.00;99.90
12015;DHT22;6066;48.138;16.402;2024-03-02T12:25:17;11.10;99.90
12015;DHT22;6066;48.138;16.402;2024-03-02T12:27:44;11.20;99.90
12015;DHT22;6066;48.138;16.402;2024-03-02T12:30:13;11.30;99.90
12015;DHT22;6066;48.138;16.402;2024-03-02T12:32:40;11.40;99.90
12015;DHT22;6066;48.138;16.402;2024-03-02T12:35:07;11.50;99.90
12015;DHT22;6066;48.138;16.402;2024-03-02T12:37:41;11.60;99.90
12015;DHT22;6066;48.138;16.402;2024-03-02T12:40:09;11.70;99.90
12015;DHT22;6066;48.138;16.402;2024-03-02T12:42:36;11.70;99.90
12015;DHT22;6066;48.138;16.402;2024-03-02T12:45:03;11.80;99.90
12015;DHT22;6066;48.138;16.402;2024-03-02T12:47:36;11.90;99.90
12015;DHT22;6066;48.138;16.402;2024-03-02T12:50:04;11.90;99.90
12015;DHT22;6066;48.138;16.402;2024-03-02T12:52:31;12.00;99.90
12015;DHT22;6066;48.138;16.402;2024-03-02T12:54:59;12.00;99.90
12015;DHT22;6066;48.138;16.402;2024-03-02T12:57:26;12.00;99.90
12015;DHT22;6066;48.138;16.402;2024-03-02T12:59:56;12.00;99.90
12015;DHT22;6066;48.138;16.402;2024-03-02T13:02:23;12.00;99.90
12015;DHT22;6066;48.138;16.402;2024-03-02T13:04:55;12.00;99.90
12015;DHT22;6066;48.138;16.402;2024-03-02T13:07:22;11.90;99.90
12015;DHT22;6066;48.138;16.402;2024-03-02T13:09:49;11.80;99.90
12015;DHT22;6066;48.138;16.402;2024-03-02T13:12:16;11.80;99.90
12015;DHT22;6066;48.138;16.402;2024-03-02T13:14:42;11.70;99.90
12015;DHT22;6066;48.138;16.402;2024-03-02T13:17:09;11.70;99.90
12015;DHT22;6066;48.138;16.402;2024-03-02T13:19:36;11.80;99.90
12015;DHT22;6066;48.138;16.402;2024-03-02T13:22:04;11.80;99.90
12015;DHT22;6066;48.138;16.402;2024-03-02T13:24:31;11.90;99.90
12015;DHT22;6066;48.138;16.402;2024-03-02T13:26:58;12.00;99.90
12015;DHT22;6066;48.138;16.402;2024-03-02T13:29:25;12.10;99.90
12015;DHT22;6066;48.138;16.402;2024-03-02T13:31:54;12.20;99.90
12015;DHT22;6066;48.138;16.402;2024-03-02T13:34:23;12.30;99.90
12015;DHT22;6066;48.138;16.402;2024-03-02T13:36:49;12.30;99.90
12015;DHT22;6066;48.138;16.402;2024-03-02T13:39:18;12.30;99.90
12015;DHT22;6066;48.138;16.402;2024-03-02T13:41:44;12.30;99.90
12015;DHT22;6066;48.138;16.402;2024-03-02T13:44:17;12.30;99.90
12015;DHT22;6066;48.138;16.402;2024-03-02T13:46:44;12.40;99.90
12015;DHT22;6066;48.138;16.402;2024-03-02T13:49:11;12.40;99.90
12015;DHT22;6066;48.138;16.402;2024-03-02T13:51:38;12.30;99.90
12015;DHT22;6066;48.138;16.402;2024-03-02T13:54:05;12.30;99.90
12015;DHT22;6066;48.138;16.402;2024-03-02T13:56:33;12.30;99.90
12015;DHT22;6066;48.138;16.402;2024-03-02T13:59:00;12.30;99.90
12015;DHT22;6066;48.138;16.402;2024-03-02T14:01:26;12.30;99.90
12015;DHT22;6066;48.138;16.402;2024-03-02T14:03:53;12.30;99.90
12015;DHT22;6066;48.138;16.402;2024-03-02T14:06:21;12.20;99.90
12015;DHT22;6066;48.138;16.402;2024-03-02T14:08:53;12.20;99.90
12015;DHT22;6066;48.138;16.402;2024-03-02T14:11:20;12.20;99.90
12015;DHT22;6066;48.138;16.402;2024-03-02T14:13:48;12.20;99.90
12015;DHT22;6066;48.138;16.402;2024-03-02T14:16:19;12.10;99.90
12015;DHT22;6066;48.138;16.402;2024-03-02T14:18:48;12.10;99.90
12015;DHT22;6066;48.138;16.402;2024-03-02T14:21:17;12.00;99.90
12015;DHT22;6066;48.138;16.402;2024-03-02T14:23:44;11.90;99.90
12015;DHT22;6066;48.138;16.402;2024-03-02T14:26:11;11.80;99.90
12015;DHT22;6066;48.138;16.402;2024-03-02T14:28:38;11.70;99.90
12015;DHT22;6066;48.138;16.402;2024-03-02T14:31:06;11.60;99.90
12015;DHT22;6066;48.138;16.402;2024-03-02T14:33:33;11.60;99.90
12015;DHT22;6066;48.138;16.402;2024-03-02T14:35:59;11.50;99.90
12015;DHT22;6066;48.138;16.402;2024-03-02T14:38:26;11.50;99.90
12015;DHT22;6066;48.138;16.402;2024-03-02T14:40:54;11.50;99.90
12015;DHT22;6066;48.138;16.402;2024-03-02T14:43:29;11.40;99.90
12015;DHT22;6066;48.138;16.402;2024-03-02T14:45:55;11.40;99.90
12015;DHT22;6066;48.138;16.402;2024-03-02T14:48:25;11.30;99.90
12015;DHT22;6066;48.138;16.402;2024-03-02T14:50:52;11.30;99.90
12015;DHT22;6066;48.138;16.402;2024-03-02T14:53:19;11.20;99.90
12015;DHT22;6066;48.138;16.402;2024-03-02T14:55:46;11.20;99.90
12015;DHT22;6066;48.138;16.402;2024-03-02T14:58:12;11.10;99.90
12015;DHT22;6066;48.138;16.402;2024-03-02T15:00:39;11.10;99.90
12015;DHT22;6066;48.138;16.402;2024-03-02T15:03:06;11.10;99.90
12015;DHT22;6066;48.138;16.402;2024-03-02T15:05:35;11.10;99.90
12015;DHT22;6066;48.138;16.402;2024-03-02T15:08:02;11.10;99.90
12015;DHT22;6066;48.138;16.402;2024-03-02T15:10:30;11.00;99.90
12015;DHT22;6066;48.138;16.402;2024-03-02T15:12:57;11.00;99.90
12015;DHT22;6066;48.138;16.402;2024-03-02T15:15:24;10.90;99.90
12015;DHT22;6066;48.138;16.402;2024-03-02T15:17:50;10.90;99.90
12015;DHT22;6066;48.138;16.402;2024-03-02T15:20:19;11.00;99.90
12015;DHT22;6066;48.138;16.402;2024-03-02T15:22:48;11.00;99.90
12015;DHT22;6066;48.138;16.402;2024-03-02T15:25:15;11.00;99.90
12015;DHT22;6066;48.138;16.402;2024-03-02T15:27:44;11.00;99.90
12015;DHT22;6066;48.138;16.402;2024-03-02T15:30:11;11.00;99.90
12015;DHT22;6066;48.138;16.402;2024-03-02T15:32:37;11.00;99.90
12015;DHT22;6066;48.138;16.402;2024-03-02T15:35:07;11.00;99.90
12015;DHT22;6066;48.138;16.402;2024-03-02T15:37:34;10.90;99.90
12015;DHT22;6066;48.138;16.402;2024-03-02T15:40:03;10.90;99.90
12015;DHT22;6066;48.138;16.402;2024-03-02T15:42:33;10.90;99.90
12015;DHT22;6066;48.138;16.402;2024-03-02T15:45:00;10.90;99.90
12015;DHT22;6066;48.138;16.402;2024-03-02T15:47:27;10.90;99.90
12015;DHT22;6066;48.138;16.402;2024-03-02T15:49:54;10.80;99.90